0NC3 weather

Washington County Hospital Heliport
Plymouth, North Carolina, United States

Public forecast

Using degrees Fahrenheit for public forecast. Weather courtesy of forecast.io.

Closest aviation weather report (METAR) to Washington County Hospital Heliport

Closest report is Northeastern Regional Airport, 11.2 nm (20.7 km) NE. Retrieved 2019/10/19 08:35 UTC (0 seconds ago):

KEDE 190835Z AUTO 00000KT 10SM CLR 07/06 A3010 RMK AO2 T00700061

Closest aviation forecast (TAF) to Washington County Hospital Heliport

Closest forecast is Elizabeth City Regional Airport & Coast Guard Air Station, 34.4 nm (63.7 km) NE. Retrieved 2019/10/19 06:24 UTC (2 hours ago):

TAF KECG 190520Z 1906/2006 VRB03KT P6SM SKC FM191700 11005KT P6SM SCT250 FM200400 11008KT P6SM OVC060